EDHL/LBC METAR and TAF weather

Enter ICAO airport designator
Station Type Date Time Source
EDHL METAR 2021/09/16 19:50 UTC NOAA

EDHL 161950Z 23007KT 200V260 9999 BKN007 16/15 Q1011


Station Type Date Time Source
EDHL Decoded METAR 2021/09/16 19:50 UTC NOAA

Luebeck-Blankensee, Germany (EDHL) 53-49N 010-42E 15M
Sep 16, 2021 - 03:50 PM EDT / 2021.09.16 1950 UTC
Wind: from the SW (230 degrees) at 8 MPH (7 KT) (direction variable):0
Visibility: greater than 7 mile(s):0
Sky conditions: mostly cloudy
Temperature: 60 F (16 C)
Dew Point: 59 F (15 C)
Relative Humidity: 93%
Pressure (altimeter): 29.85 in. Hg (1011 hPa)
ob: EDHL 161950Z 23007KT 200V260 9999 BKN007 16/15 Q1011
cycle: 20

Station Type Date Time Source
EDHL TAF 2010/02/22 14:20 UTC NOAA

METAR EDHL 221420Z 15004KT 110V180 9999 FEW039 SCT120 05/02 Q0990
RMK X

Example: see airport list